Huvudsida
METAR-TAF:

METAR-TAF

Flygplatser :

Dubai, Förenade Arabemiraten

Dubais internationella flygplats

latitud: 25-15-10N, longitud: 055-21-52E, höjd: 8 m

Aktuellt väderrapport

Denna rapport gjordes för 8 minuter sedan, klockan 01:00 UTC
Vind 6 kt från ost, varierande mellan nordost och ost/sydost
Temperatur 18°C
Fuktighet 68%
Tryck 1017 hPa
Sikt 10 km eller mer
Inga moln under 1 500 m eller inga cumulonimbus

METAR: OMDB 200100Z 09006KT 040V120 CAVOK 18/12 Q1017 NOSIG

Tid: 05:08 (01:08 UTC)

Väderprognos

Denna rapport gjordes för 2 timmar och 5 minuter sedan, klockan 23:03 UTC
Prognos gäller från 20 kl. 00 UTC till 21 kl. 06 UTC
Vind 5 kt från ost/nordost
Sikt: 8000 m
Sannolikhet 30%
från 20 kl. 01 UTC till 20 kl. 05 UTC
Sikt: 4000 m
torrdis
Blir
från 20 kl. 09 UTC till 20 kl. 11 UTC
Vind 10 kt från nordväst
Blir
från 20 kl. 15 UTC till 20 kl. 17 UTC
Vind 5 kt från ost

TAF: OMDB 192303Z 2000/2106 07005KT 8000 NSC PROB30 2001/2005 4000 HZ BECMG 2009/2011 32010KT BECMG 2015/2017 10005KT

Aktuella väderrapporter och prognoser från 4000 flygplatser (METAR- och TAF-rapporter).

De tillgängliga stationerna syns som gula och röda prickar på kartan.

För musen över prickarna för att se namnen på stationerna.

Klicka sedan för att få väderrapporter och prognoser.

För att ändra kartan: Klicka på de gröna knapparna med ett svart kors på för att zooma in; den gröna knappen med ett streck på för att zooma ut; eller på de gröna pilarna för angränsande kartor.


METAR-TAF: